Terminal Aerodrome Forecast
Issued by NWS Rapid City, SD

Home | Current Version | Previous Version | Text Only | Print | Product List | Glossary Off
Versions: 1 2 3 4 5 6 7 8 9 10 11 12 13 14 15 16 17 18 19 20 21 22 23 24 25

827
FTUS43 KUNR 230414 AAC
TAFRAP
TAF AMD
KRAP 230414Z 2304/2324 32012KT P6SM SCT090
     FM231400 05007KT P6SM SCT250
     FM232000 18012KT P6SM SCT250=

USA.gov is the U.S. government's official web portal to all federal, state and local government web resources and services.